Latest Weather Observations for Braidwood

IDN60801

Issued at 12:05 pm EST Saturday 19 April 2014 (issued every 30 minutes, with the page automatically refreshed every 10 minutes)

About weather observations | Map of weather stations | Latest weather observations for NSW | Other Formats
Station Details ID: 069132 Name: BRAIDWOOD RACECOURSE AWS Lat: -35.43 Lon: 149.78 Height: 665.2 m
Data from the previous 72 hours. | See also: Recent months at Braidwood
Date/Time
EST
Temp
°C
App
Temp
°C
Dew
Point
Rel
Hum
%
Delta-T
°C
Wind Press
QNH
hPa
Press
MSL
hPa
Rain
since 9 am
mm
Dir
 
Spd
km/h
Gust
km/h
Spd
kts
Gust
kts
19/12:00pm 12.9 9.9 2.2 48 4.8 E 7 13 4 7 1017.0 1016.1 0.0
19/11:30am 12.9 11.3 2.2 48 4.8 ESE 0 0 0 0 1017.5 - 0.0
19/11:00am 12.4 10.7 2.0 49 4.7 CALM 0 0 0 0 1017.8 1016.9 0.0
19/10:30am 12.9 10.6 2.7 50 4.7 SSW 4 9 2 5 1018.0 - 0.0
19/10:00am 11.3 8.8 1.5 51 4.3 SSW 4 9 2 5 1018.2 1017.3 0.0
19/09:30am 10.7 7.7 2.3 56 3.7 SSW 7 13 4 7 1018.2 - 0.0
19/09:00am 9.6 6.4 2.9 63 3.0 SW 9 15 5 8 1018.0 1017.1 0.0
19/08:30am 8.8 5.9 2.4 64 2.8 S 7 11 4 6 1018.2 - 0.0
19/08:00am 7.5 3.7 1.8 67 2.4 SSW 11 17 6 9 1018.0 1017.1 0.0
19/07:30am 6.9 2.6 1.0 66 2.5 SSW 13 20 7 11 1017.9 - 0.0
19/07:00am 6.5 2.1 0.6 66 2.4 SSW 13 20 7 11 1017.6 1016.7 0.0
19/06:30am 6.7 2.7 0.8 66 2.4 SSE 11 19 6 10 1017.5 - 0.0
19/06:00am 6.1 1.9 1.4 72 2.0 SSW 13 19 7 10 1017.1 1016.2 0.0
19/05:30am 7.3 3.4 1.0 64 2.6 S 11 20 6 11 1016.8 - 0.0
19/05:00am 6.6 3.5 1.1 68 2.3 SSE 7 11 4 6 1016.7 1015.8 0.0
19/04:30am 7.4 3.2 1.7 67 2.4 SSW 13 20 7 11 1016.5 - 0.0
19/04:00am 4.1 2.4 1.6 84 1.0 CALM 0 6 0 3 1016.2 1015.3 0.0
19/03:30am 5.7 3.8 2.9 82 1.2 ENE 2 6 1 3 1016.1 - 0.0
19/03:00am 6.5 5.0 3.1 79 1.5 CALM 0 0 0 0 1016.0 1015.1 0.0
19/02:30am 8.5 5.5 4.1 74 2.0 WSW 9 13 5 7 1015.8 - 0.0
19/02:00am 7.2 3.7 3.6 78 1.6 SSW 11 13 6 7 1015.9 1015.0 0.0
19/01:30am 8.8 4.7 4.6 75 1.9 S 15 17 8 9 1016.0 - 0.0
19/01:00am 9.6 5.9 4.4 70 2.4 SSW 13 20 7 11 1016.0 1015.1 0.0
19/12:30am 9.7 4.9 4.9 72 2.2 SSW 19 26 10 14 1015.9 - 0.0
19/12:00am 9.5 6.0 5.5 76 1.9 S 13 20 7 11 1015.9 1015.0 0.0
 
Date/Time
EST
Temp
°C
App
Temp
°C
Dew
Point
Rel
Hum
%
Delta-T
°C
Wind Press
QNH
hPa
Press
MSL
hPa
Rain
since 9 am
mm
Dir
 
Spd
km/h
Gust
km/h
Spd
kts
Gust
kts
18/11:30pm 10.6 6.1 6.9 78 1.8 SSW 20 30 11 16 1016.1 - 0.0
18/11:00pm 12.0 9.1 8.1 77 2.0 SW 13 24 7 13 1016.0 1015.1 0.0
18/10:30pm 12.5 10.9 8.0 74 2.3 WSW 6 7 3 4 1015.5 - 0.0
18/10:00pm 13.1 11.9 8.0 71 2.6 W 4 7 2 4 1015.5 1014.6 0.0
18/09:30pm 13.1 11.3 8.0 71 2.6 WNW 7 11 4 6 1015.4 - 0.0
18/09:00pm 12.0 10.1 7.5 74 2.3 NW 7 11 4 6 1015.3 1014.4 0.0
18/08:30pm 12.0 9.9 6.7 70 2.6 NW 7 11 4 6 1015.1 - 0.0
18/08:00pm 13.6 10.4 6.7 63 3.5 WNW 13 19 7 10 1014.8 1013.9 0.0
18/07:30pm 13.5 10.0 7.1 65 3.2 WNW 15 20 8 11 1014.6 - 0.0
18/07:00pm 13.5 9.9 6.8 64 3.4 WNW 15 19 8 10 1014.6 1013.7 0.0
18/06:30pm 13.5 12.4 7.1 65 3.2 WNW 2 4 1 2 1014.6 - 0.0
18/06:00pm 14.1 11.2 6.7 61 3.7 WNW 11 17 6 9 1014.4 1013.4 0.0
18/05:30pm 15.2 10.3 6.7 57 4.3 W 22 30 12 16 1014.2 - 0.0
18/05:00pm 15.8 11.5 6.8 55 4.6 WNW 19 26 10 14 1013.8 1012.9 0.0
18/04:30pm 17.3 12.3 6.5 49 5.5 WNW 22 30 12 16 1013.6 - 0.0
18/04:00pm 17.7 12.9 7.2 50 5.5 WNW 22 33 12 18 1013.3 1012.4 0.0
18/03:30pm 16.8 12.5 6.9 52 5.1 W 19 26 10 14 1013.5 - 0.0
18/03:00pm 18.5 15.9 7.9 50 5.6 NW 11 17 6 9 1013.4 1012.5 0.0
18/02:30pm 18.5 13.8 7.9 50 5.6 W 22 32 12 17 1013.4 - 0.0
18/02:00pm 18.5 15.2 8.2 51 5.5 WNW 15 24 8 13 1013.6 1012.7 0.0
18/01:30pm 18.3 14.1 8.3 52 5.3 WNW 20 30 11 16 1013.8 - 0.0
18/01:00pm 17.7 13.6 7.7 52 5.2 W 19 33 10 18 1014.4 1013.4 0.0
18/12:30pm 17.6 13.9 7.9 53 5.1 WSW 17 30 9 16 1014.9 - 0.0
18/12:00pm 17.8 13.8 6.7 48 5.7 W 17 26 9 14 1015.2 1014.3 0.0
18/11:30am 18.1 17.6 11.9 67 3.5 N 6 13 3 7 1015.4 - 0.0
18/11:00am 17.1 16.2 10.7 66 3.5 N 6 9 3 5 1016.0 1015.1 0.0
18/10:30am 15.5 14.6 9.2 66 3.4 N 4 11 2 6 1016.3 - 0.0
18/10:00am 14.2 14.2 9.8 75 2.4 CALM 0 0 0 0 1016.7 1015.8 0.0
18/09:30am 13.3 13.3 9.9 80 1.8 CALM 0 0 0 0 1017.1 - 0.0
18/09:00am 11.5 11.6 10.1 91 0.7 CALM 0 0 0 0 1017.5 1016.6 0.2
18/08:30am 9.6 9.4 9.0 96 0.3 CALM 0 0 0 0 1017.4 - 0.2
18/08:00am 7.8 7.2 7.2 96 0.3 CALM 0 0 0 0 1017.7 1016.8 0.2
18/07:30am 4.7 3.0 4.1 96 0.3 SSW 2 4 1 2 1017.5 - 0.2
18/07:00am 3.8 2.3 3.2 96 0.3 CALM 0 0 0 0 1017.4 1016.5 0.2
18/06:30am 3.5 2.0 2.9 96 0.3 CALM 0 0 0 0 1017.4 - 0.2
18/06:00am 3.7 2.2 3.1 96 0.3 CALM 0 0 0 0 1017.4 1016.5 0.2
18/05:30am 4.0 2.6 3.4 96 0.3 CALM 0 0 0 0 1017.6 - 0.0
18/05:00am 3.1 1.5 2.5 96 0.2 CALM 0 0 0 0 1017.6 1016.7 0.0
18/04:30am 2.6 0.9 2.0 96 0.2 CALM 0 0 0 0 1017.8 - 0.0
18/04:00am 2.6 0.9 2.0 96 0.2 CALM 0 0 0 0 1017.9 1017.0 0.0
18/03:30am 3.0 1.4 2.3 95 0.3 CALM 0 0 0 0 1017.9 - 0.0
18/03:00am 2.9 1.3 2.2 95 0.3 CALM 0 0 0 0 1018.1 1017.2 0.0
18/02:30am 3.1 1.5 2.4 95 0.3 CALM 0 0 0 0 1018.5 - 0.0
18/02:00am 3.7 2.2 3.0 95 0.3 CALM 0 0 0 0 1018.8 1018.0 0.0
18/01:30am 3.9 2.4 3.2 95 0.3 CALM 0 0 0 0 1019.4 - 0.0
18/01:00am 4.2 2.8 3.5 95 0.3 CALM 0 0 0 0 1019.4 1018.5 0.0
18/12:30am 4.9 3.6 4.2 95 0.3 CALM 0 0 0 0 1019.7 - 0.0
18/12:00am 4.9 3.6 4.2 95 0.3 CALM 0 0 0 0 1020.0 1019.2 0.0
 
Date/Time
EST
Temp
°C
App
Temp
°C
Dew
Point
Rel
Hum
%
Delta-T
°C
Wind Press
QNH
hPa
Press
MSL
hPa
Rain
since 9 am
mm
Dir
 
Spd
km/h
Gust
km/h
Spd
kts
Gust
kts
17/11:30pm 4.9 3.6 4.0 94 0.4 CALM 0 0 0 0 1020.2 - 0.0
17/11:00pm 5.3 4.1 4.4 94 0.4 CALM 0 0 0 0 1020.7 1019.8 0.0
17/10:30pm 6.5 5.5 5.6 94 0.4 CALM 0 0 0 0 1020.9 - 0.0
17/10:00pm 6.6 5.6 5.6 93 0.5 CALM 0 0 0 0 1021.2 1020.4 0.0
17/09:30pm 7.6 6.8 6.7 94 0.4 CALM 0 0 0 0 1021.3 - 0.0
17/09:00pm 7.2 6.3 6.0 92 0.6 CALM 0 0 0 0 1021.1 1020.3 0.0
17/08:30pm 7.8 7.0 6.7 93 0.5 CALM 0 0 0 0 1021.1 - 0.0
17/08:00pm 8.2 6.7 6.8 91 0.7 SSE 4 4 2 2 1021.0 1020.1 0.0
17/07:30pm 8.9 7.6 7.5 91 0.7 WSW 4 6 2 3 1021.0 - 0.0
17/07:00pm 9.2 7.5 7.5 89 0.8 S 6 7 3 4 1020.6 1019.7 0.0
17/06:30pm 10.0 8.2 7.8 86 1.1 S 7 9 4 5 1020.4 - 0.0
17/06:00pm 11.4 9.3 8.4 82 1.5 SE 9 15 5 8 1020.2 1019.4 0.0
17/05:30pm 12.4 9.7 8.9 79 1.8 ESE 13 19 7 10 1020.0 - 0.0
17/05:00pm 13.9 11.5 8.7 71 2.7 ESE 11 17 6 9 1019.8 1019.0 0.0
17/04:30pm 15.2 12.1 8.7 65 3.4 ESE 15 19 8 10 1019.6 - 0.0
17/04:00pm 16.0 12.5 8.7 62 3.9 ESE 17 20 9 11 1019.5 1018.6 0.0
17/03:30pm 16.9 14.4 8.3 57 4.5 ESE 11 17 6 9 1019.4 - 0.0
17/03:00pm 17.6 15.2 6.8 49 5.5 SSE 9 15 5 8 1019.4 1018.5 0.0
17/02:30pm 17.3 15.1 6.2 48 5.6 SSE 7 11 4 6 1019.5 - 0.0
17/02:00pm 17.2 15.4 7.3 52 5.1 SE 6 11 3 6 1019.7 1018.8 0.0
17/01:30pm 17.1 14.4 7.2 52 5.1 S 11 17 6 9 1019.8 - 0.0
17/01:00pm 17.0 14.6 7.1 52 5.1 SSE 9 17 5 9 1020.0 1019.2 0.0
17/12:30pm 17.0 14.7 7.4 53 5.0 SSE 9 15 5 8 1020.2 - 0.0
17/12:00pm 16.3 13.0 6.2 51 5.1 S 13 19 7 10 1020.8 1019.9 0.0
17/11:30am 16.4 13.8 7.9 57 4.4 S 11 19 6 10 1021.2 - 0.0
17/11:00am 15.9 13.7 7.7 58 4.2 SSE 9 19 5 10 1021.4 1020.6 0.0
17/10:30am 15.0 12.4 7.8 62 3.7 SSW 11 17 6 9 1021.6 - 0.0
17/10:00am 14.6 12.3 7.4 62 3.7 S 9 15 5 8 1021.7 1020.9 0.0
17/09:30am 13.9 11.9 7.0 63 3.5 SSE 7 11 4 6 1021.7 - 0.0
17/09:00am 12.8 11.5 9.1 78 1.9 WSW 6 9 3 5 1021.7 1020.9 0.0
17/08:30am 10.3 8.1 7.9 85 1.2 WSW 9 13 5 7 1021.7 - 0.0
17/08:00am 9.1 8.8 8.5 96 0.3 CALM 0 0 0 0 1021.6 1020.8 0.0
17/07:30am 6.3 5.3 5.7 96 0.3 CALM 0 0 0 0 1021.3 - 0.0
17/07:00am 4.1 2.7 3.4 95 0.3 CALM 0 0 0 0 1020.9 1020.0 0.0
17/06:30am 2.6 0.9 1.7 94 0.4 CALM 0 0 0 0 1020.7 - 0.0
17/06:00am 3.6 2.0 2.6 93 0.4 CALM 0 0 0 0 1020.2 1019.4 0.0
17/05:30am 3.5 1.9 2.2 91 0.5 CALM 0 0 0 0 1020.1 - 0.0
17/05:00am 6.2 5.1 5.3 94 0.4 CALM 0 0 0 0 1020.0 1019.2 0.0
17/04:30am 6.3 5.2 5.3 93 0.5 CALM 0 0 0 0 1019.9 - 0.0
17/04:00am 7.0 6.1 5.9 93 0.5 CALM 0 0 0 0 1019.8 1019.0 0.0
17/03:30am 6.6 5.6 5.4 92 0.6 CALM 0 0 0 0 1019.7 - 0.0
17/03:00am 7.5 6.6 6.0 90 0.7 CALM 0 0 0 0 1019.7 1018.8 0.0
17/02:30am 8.2 7.4 6.7 90 0.7 CALM 0 0 0 0 1019.8 - 0.0
17/02:00am 8.5 7.9 7.3 92 0.6 CALM 0 0 0 0 1020.1 1019.3 0.0
17/01:30am 8.0 7.3 6.9 93 0.5 CALM 0 0 0 0 1020.3 - 0.0
17/01:00am 7.2 6.2 5.7 90 0.7 CALM 0 0 0 0 1020.7 1019.8 0.0
17/12:30am 7.8 7.0 6.4 91 0.7 CALM 0 0 0 0 1020.7 - 0.0
17/12:00am 8.6 7.8 6.7 88 0.9 CALM 0 0 0 0 1020.9 1020.0 0.0
 
Date/Time
EST
Temp
°C
App
Temp
°C
Dew
Point
Rel
Hum
%
Delta-T
°C
Wind Press
QNH
hPa
Press
MSL
hPa
Rain
since 9 am
mm
Dir
 
Spd
km/h
Gust
km/h
Spd
kts
Gust
kts
16/11:30pm 8.9 8.3 7.2 89 0.8 CALM 0 0 0 0 1021.0 - 0.0
16/11:00pm 8.6 7.9 7.1 90 0.7 CALM 0 0 0 0 1021.1 1020.3 0.0
16/10:30pm 8.2 7.5 7.1 93 0.5 CALM 0 0 0 0 1021.3 - 0.0
16/10:00pm 7.4 6.5 5.9 90 0.7 CALM 0 0 0 0 1021.4 1020.6 0.0
16/09:30pm 8.0 7.2 6.5 90 0.7 CALM 0 0 0 0 1021.5 - 0.0
16/09:00pm 8.6 7.9 7.1 90 0.7 CALM 0 0 0 0 1021.4 1020.6 0.0
16/08:30pm 9.0 8.4 7.6 91 0.7 CALM 0 0 0 0 1021.2 - 0.0
16/08:00pm 8.6 7.8 6.4 86 1.1 CALM 0 0 0 0 1020.9 1020.0 0.0
16/07:30pm 9.4 7.6 7.2 86 1.1 S 6 7 3 4 1020.7 - 0.0
16/07:00pm 9.2 7.6 6.3 82 1.4 S 4 4 2 2 1020.6 1019.7 0.0
16/06:30pm 10.7 9.2 8.3 85 1.2 SSE 6 7 3 4 1020.3 - 0.0
16/06:00pm 11.1 9.3 8.0 81 1.6 SE 7 11 4 6 1019.9 1019.1 0.0
16/05:30pm 12.0 9.5 8.1 77 2.0 ESE 11 15 6 8 1019.7 - 0.0
16/05:00pm 13.5 10.5 7.9 69 2.9 ESE 13 17 7 9 1019.4 1018.5 0.0
16/04:30pm 15.3 12.5 8.5 64 3.6 ESE 13 17 7 9 1019.1 - 0.0
16/04:00pm 16.4 14.0 4.4 45 5.8 ESE 6 7 3 4 1019.1 1018.2 0.0
16/03:30pm 16.7 14.8 6.5 51 5.2 E 6 9 3 5 1019.1 - 0.0
16/03:00pm 16.7 14.6 6.8 52 5.1 ENE 7 15 4 8 1019.2 1018.3 0.0
16/02:30pm 17.0 15.4 6.5 50 5.4 E 4 13 2 7 1019.4 - 0.0
16/02:00pm 16.5 14.8 6.1 50 5.2 S 4 9 2 5 1019.5 1018.6 0.0
16/01:30pm 16.6 14.7 6.7 52 5.1 S 6 11 3 6 1019.6 - 0.0
16/01:00pm 16.2 14.5 5.8 50 5.2 E 4 9 2 5 1019.7 1018.8 0.0
16/12:30pm 15.5 13.8 6.0 53 4.7 S 4 13 2 7 1020.1 - 0.0

Other Formats:

Comma delimited format used in spreadsheet applications
http://www.bom.gov.au/fwo/IDN60801/IDN60801.94927.axf

JavaScript Object Notation format (JSON) in row-major order
http://www.bom.gov.au/fwo/IDN60801/IDN60801.94927.json